Time;durP1;ratioP1;P1;durP2;ratioP2;P2;SDS_P1;SDS_P2;PMS_P1;PMS_P2;Temp;Humidity;BMP_temperature;BMP_pressure;BME280_temperature;BME280_humidity;BME280_pressure;Samples;Min_cycle;Max_cycle;Signal;HPM_P1;HPM_P2
2022/04/15 00:01:40;;;;;;;26.33;19.17;;;6.90;99.90;;;;;;4995216;28;20051;-77
2022/04/15 00:04:07;;;;;;;20.42;17.25;;;6.80;99.90;;;;;;4986911;28;20056;-77
2022/04/15 00:06:33;;;;;;;18.42;16.50;;;6.80;99.90;;;;;;4992687;28;20041;-77
2022/04/15 00:08:59;;;;;;;21.90;18.95;;;6.80;99.90;;;;;;4987589;28;20122;-77
2022/04/15 00:11:25;;;;;;;21.40;15.55;;;6.80;99.90;;;;;;4993130;28;20532;-77
2022/04/15 00:13:51;;;;;;;18.63;14.43;;;6.70;99.90;;;;;;5000622;28;20045;-77
2022/04/15 00:16:17;;;;;;;25.08;18.45;;;6.70;99.90;;;;;;4990732;28;20042;-77
2022/04/15 00:18:43;;;;;;;21.27;17.70;;;6.70;99.90;;;;;;5001462;28;20766;-77
2022/04/15 00:21:09;;;;;;;17.00;15.20;;;6.70;99.90;;;;;;5006226;28;20076;-77
2022/04/15 00:23:35;;;;;;;21.27;16.20;;;6.70;99.90;;;;;;4994143;28;20045;-78
2022/04/15 00:26:01;;;;;;;27.77;18.38;;;6.60;99.90;;;;;;5006462;28;20052;-77
2022/04/15 00:28:27;;;;;;;25.65;19.05;;;6.60;99.90;;;;;;4972868;28;20129;-77
2022/04/15 00:30:53;;;;;;;24.63;18.85;;;6.50;99.90;;;;;;5005713;28;20045;-77
2022/04/15 00:33:19;;;;;;;26.30;19.63;;;6.50;99.90;;;;;;4974142;28;20782;-77
2022/04/15 00:35:45;;;;;;;16.88;13.80;;;6.50;99.90;;;;;;4956584;28;20042;-77
2022/04/15 00:38:11;;;;;;;25.52;18.42;;;6.50;99.90;;;;;;5014273;28;20047;-77
2022/04/15 00:40:37;;;;;;;28.75;21.65;;;6.40;99.90;;;;;;4988100;28;20368;-78
2022/04/15 00:43:03;;;;;;;27.05;23.45;;;6.40;99.90;;;;;;5020495;28;20052;-77
2022/04/15 00:45:28;;;;;;;24.48;20.00;;;6.40;99.90;;;;;;4991942;28;20053;-76
2022/04/15 00:47:59;;;;;;;30.95;22.77;;;6.40;99.90;;;;;;5008657;28;20033;-77
2022/04/15 00:50:35;;;;;;;24.23;20.27;;;6.40;99.90;;;;;;5004999;28;20396;-76
2022/04/15 00:53:07;;;;;;;21.58;18.60;;;6.40;99.90;;;;;;5010547;28;20041;-76
2022/04/15 00:55:33;;;;;;;25.02;19.63;;;6.40;99.90;;;;;;5008960;28;20057;-77
2022/04/15 00:58:01;;;;;;;18.58;16.38;;;6.40;99.90;;;;;;4959962;28;20042;-77
2022/04/15 01:00:29;;;;;;;23.23;19.58;;;6.40;99.90;;;;;;5005590;28;20049;-77
2022/04/15 01:03:01;;;;;;;21.48;18.45;;;6.40;99.90;;;;;;5006538;28;20456;-77
2022/04/15 01:05:28;;;;;;;24.10;19.30;;;6.50;99.90;;;;;;5009148;28;21245;-77
2022/04/15 01:07:55;;;;;;;28.65;19.35;;;6.50;99.90;;;;;;4975488;28;20649;-77
2022/04/15 01:10:23;;;;;;;23.70;19.60;;;6.50;99.90;;;;;;4989202;28;20463;-76
2022/04/15 01:12:54;;;;;;;26.58;18.88;;;6.60;99.90;;;;;;5015143;28;20049;-77
2022/04/15 01:15:21;;;;;;;23.80;19.25;;;6.60;99.90;;;;;;5007160;28;20053;-77
2022/04/15 01:17:48;;;;;;;23.17;18.92;;;6.60;99.90;;;;;;4989118;28;20045;-77
2022/04/15 01:20:14;;;;;;;21.77;18.10;;;6.70;99.90;;;;;;5004965;28;20539;-77
2022/04/15 01:22:47;;;;;;;24.52;20.08;;;6.70;99.90;;;;;;4990026;28;20042;-77
2022/04/15 01:25:15;;;;;;;21.75;18.15;;;6.70;99.90;;;;;;4988690;28;20065;-77
2022/04/15 01:27:46;;;;;;;25.05;18.50;;;6.70;99.90;;;;;;4989114;28;20152;-76
2022/04/15 01:30:18;;;;;;;23.55;18.40;;;6.80;99.90;;;;;;5005183;28;20077;-77
2022/04/15 01:32:44;;;;;;;24.35;19.70;;;6.80;99.90;;;;;;4988282;28;20119;-77
2022/04/15 01:35:12;;;;;;;21.75;18.85;;;6.80;99.90;;;;;;4991158;28;20582;-77
2022/04/15 01:37:39;;;;;;;21.80;18.73;;;6.80;99.90;;;;;;4986814;28;20057;-77
2022/04/15 01:40:07;;;;;;;23.35;18.65;;;6.80;99.90;;;;;;4985654;28;20556;-77
2022/04/15 01:42:36;;;;;;;19.55;17.30;;;6.80;99.90;;;;;;4987842;28;20049;-76
2022/04/15 01:45:03;;;;;;;22.40;17.90;;;6.90;99.90;;;;;;4974857;28;20137;-77
2022/04/15 01:47:29;;;;;;;20.95;18.23;;;6.90;99.90;;;;;;4992980;28;20045;-77
2022/04/15 01:49:55;;;;;;;22.35;18.80;;;6.90;99.90;;;;;;5015227;28;20045;-77
2022/04/15 01:52:21;;;;;;;23.70;18.73;;;6.90;99.90;;;;;;4990373;28;20872;-77
2022/04/15 01:54:47;;;;;;;19.88;17.83;;;7.00;99.90;;;;;;4990867;28;20033;-77
2022/04/15 01:57:14;;;;;;;20.80;18.65;;;7.00;99.90;;;;;;5007504;28;20045;-76
2022/04/15 01:59:40;;;;;;;20.08;17.67;;;7.00;99.90;;;;;;5027811;28;20053;-78
2022/04/15 02:02:06;;;;;;;22.35;18.70;;;7.10;99.90;;;;;;5026724;28;20048;-76
2022/04/15 02:04:33;;;;;;;20.85;18.10;;;7.10;99.90;;;;;;5012300;28;20147;-77
2022/04/15 02:06:59;;;;;;;21.42;17.70;;;7.10;99.90;;;;;;5000758;28;20061;-78
2022/04/15 02:09:26;;;;;;;23.60;17.75;;;7.20;99.90;;;;;;4985828;28;20128;-76
2022/04/15 02:11:51;;;;;;;21.30;18.02;;;7.20;99.90;;;;;;5019454;28;20237;-76
2022/04/15 02:14:19;;;;;;;19.25;17.13;;;7.20;99.90;;;;;;5005181;28;20498;-77
2022/04/15 02:16:46;;;;;;;19.60;17.48;;;7.20;99.90;;;;;;5029550;28;20392;-77
2022/04/15 02:19:12;;;;;;;17.85;15.63;;;7.30;99.90;;;;;;4988656;28;20048;-77
2022/04/15 02:21:37;;;;;;;22.30;17.50;;;7.20;99.90;;;;;;4997480;28;20041;-77
2022/04/15 02:24:04;;;;;;;20.08;17.63;;;7.30;99.90;;;;;;5029954;28;20052;-77
2022/04/15 02:26:29;;;;;;;22.95;17.45;;;7.30;99.90;;;;;;5022505;28;20060;-77
2022/04/15 02:28:55;;;;;;;22.20;17.15;;;7.40;99.90;;;;;;4993626;28;20101;-77
2022/04/15 02:31:21;;;;;;;18.77;16.77;;;7.40;99.90;;;;;;5010899;28;20053;-77
2022/04/15 02:33:47;;;;;;;23.88;17.85;;;7.40;99.90;;;;;;5009609;28;20100;-77
2022/04/15 02:36:13;;;;;;;18.75;16.77;;;7.40;99.90;;;;;;5010650;28;20939;-77
2022/04/15 02:38:39;;;;;;;20.17;17.40;;;7.40;99.90;;;;;;4997416;28;20045;-77
2022/04/15 02:41:06;;;;;;;20.63;17.08;;;7.40;99.90;;;;;;5030016;28;20048;-77
2022/04/15 02:43:33;;;;;;;24.95;18.65;;;7.40;99.90;;;;;;5029765;28;20136;-77
2022/04/15 02:46:03;;;;;;;20.23;18.05;;;7.40;99.90;;;;;;5010524;28;20095;-77
2022/04/15 02:48:29;;;;;;;;;;;7.40;99.90;;;;;;5011105;28;20487;-77
2022/04/15 02:50:56;;;;;;;24.13;19.02;;;7.40;99.90;;;;;;4996450;28;20016;-77
2022/04/15 02:53:25;;;;;;;21.63;18.92;;;7.40;99.90;;;;;;4987005;28;20542;-77
2022/04/15 02:55:52;;;;;;;22.53;18.50;;;7.50;99.90;;;;;;4987375;28;20911;-77
2022/04/15 02:58:18;;;;;;;21.05;18.05;;;7.50;99.90;;;;;;5029919;28;20106;-77
2022/04/15 03:00:44;;;;;;;23.13;18.92;;;7.50;99.90;;;;;;5006403;28;20479;-77
2022/04/15 03:03:11;;;;;;;27.30;19.38;;;7.50;99.90;;;;;;5011828;28;20076;-74
2022/04/15 03:05:41;;;;;;;24.88;18.98;;;7.50;99.90;;;;;;4980988;28;20056;-74
2022/04/15 03:08:07;;;;;;;21.92;18.52;;;7.50;99.90;;;;;;4987432;28;20729;-74
2022/04/15 03:10:33;;;;;;;24.45;19.20;;;7.60;99.90;;;;;;5008736;28;20761;-74
2022/04/15 03:13:00;;;;;;;22.88;19.42;;;7.60;99.90;;;;;;4989629;28;20089;-74
2022/04/15 03:15:26;;;;;;;23.15;17.83;;;7.60;99.90;;;;;;4958398;28;20108;-77
2022/04/15 03:17:52;;;;;;;21.25;18.10;;;7.60;99.90;;;;;;5000481;28;20077;-77
2022/04/15 03:20:18;;;;;;;20.05;17.38;;;7.60;99.90;;;;;;4997464;28;20044;-78
2022/04/15 03:22:44;;;;;;;24.23;17.70;;;7.60;99.90;;;;;;5012931;28;20495;-77
2022/04/15 03:25:19;;;;;;;19.45;17.38;;;7.60;99.90;;;;;;5029798;28;20064;-78
2022/04/15 03:27:46;;;;;;;20.23;17.52;;;7.60;99.90;;;;;;5011451;28;20057;-78
2022/04/15 03:30:12;;;;;;;17.98;15.77;;;7.60;99.90;;;;;;4992593;28;20099;-77
2022/04/15 03:32:48;;;;;;;21.02;17.00;;;7.60;99.90;;;;;;4976758;28;20081;-78
2022/04/15 03:35:16;;;;;;;21.73;16.50;;;7.70;99.90;;;;;;4977297;28;20139;-77
2022/04/15 03:37:42;;;;;;;21.67;16.52;;;7.70;99.90;;;;;;4959948;28;20063;-77
2022/04/15 03:40:08;;;;;;;20.45;17.63;;;7.70;99.90;;;;;;5009392;28;20084;-77
2022/04/15 03:42:44;;;;;;;19.98;17.00;;;7.70;99.90;;;;;;4992964;28;20099;-76
2022/04/15 03:45:14;;;;;;;22.20;17.88;;;7.70;99.90;;;;;;5009479;28;20045;-77
2022/04/15 03:47:43;;;;;;;21.50;17.10;;;7.70;99.90;;;;;;5009270;28;20049;-73
2022/04/15 03:50:10;;;;;;;21.63;17.77;;;7.70;99.90;;;;;;5008078;28;20037;-73
2022/04/15 03:52:42;;;;;;;21.63;17.52;;;7.70;99.90;;;;;;5007856;28;20077;-73
2022/04/15 03:55:16;;;;;;;18.80;16.65;;;7.70;99.90;;;;;;4993194;28;20049;-73
2022/04/15 03:57:43;;;;;;;19.60;17.08;;;7.70;99.90;;;;;;5008626;28;20140;-76
2022/04/15 04:00:11;;;;;;;20.42;16.40;;;7.70;99.90;;;;;;4991921;28;20042;-77
2022/04/15 04:02:37;;;;;;;23.20;16.13;;;7.70;99.90;;;;;;5006080;28;20080;-73
2022/04/15 04:05:04;;;;;;;18.38;16.45;;;7.70;99.90;;;;;;5007303;28;20042;-73
2022/04/15 04:07:30;;;;;;;18.67;16.77;;;7.70;99.90;;;;;;4990711;28;20539;-73
2022/04/15 04:09:57;;;;;;;20.70;16.42;;;7.70;99.90;;;;;;4991946;28;20142;-73
2022/04/15 04:12:22;;;;;;;19.15;16.05;;;7.70;99.90;;;;;;5007514;28;20060;-73
2022/04/15 04:14:48;;;;;;;19.83;16.38;;;7.80;99.90;;;;;;4992569;28;20041;-77
2022/04/15 04:17:14;;;;;;;18.67;15.73;;;7.80;99.90;;;;;;5008615;28;20447;-76
2022/04/15 04:19:39;;;;;;;18.23;16.25;;;7.70;99.90;;;;;;4991945;28;20042;-76
2022/04/15 04:22:05;;;;;;;17.60;14.43;;;7.80;99.90;;;;;;5008098;28;20045;-76
2022/04/15 04:24:31;;;;;;;20.08;16.27;;;7.80;99.90;;;;;;4991947;28;20103;-76
2022/04/15 04:26:57;;;;;;;18.45;15.80;;;7.80;99.90;;;;;;4975784;28;20056;-76
2022/04/15 04:29:24;;;;;;;19.25;17.23;;;7.80;99.90;;;;;;5007885;28;20049;-76
2022/04/15 04:31:50;;;;;;;20.40;17.35;;;7.80;99.90;;;;;;5007542;28;20053;-77
2022/04/15 04:34:15;;;;;;;19.08;17.08;;;7.80;99.90;;;;;;4975777;28;20230;-78
2022/04/15 04:36:41;;;;;;;19.85;17.55;;;7.80;99.90;;;;;;4990234;28;20045;-76
2022/04/15 04:39:09;;;;;;;21.00;18.55;;;7.80;99.90;;;;;;4974760;28;20037;-76
2022/04/15 04:41:37;;;;;;;21.48;19.27;;;7.90;99.90;;;;;;4991522;28;20115;-76
2022/04/15 04:44:03;;;;;;;20.20;17.52;;;7.90;99.90;;;;;;5008678;28;20093;-76
2022/04/15 04:46:29;;;;;;;23.02;19.17;;;7.90;99.90;;;;;;4992354;28;20064;-77
2022/04/15 04:48:55;;;;;;;18.63;16.50;;;7.90;99.90;;;;;;4992237;28;20060;-76
2022/04/15 04:51:21;;;;;;;22.05;17.05;;;7.90;99.90;;;;;;4991885;28;20567;-76
2022/04/15 04:53:47;;;;;;;15.75;14.15;;;7.90;99.90;;;;;;4992252;28;20057;-77
2022/04/15 04:56:15;;;;;;;15.32;13.82;;;8.00;99.90;;;;;;4976257;28;20111;-76
2022/04/15 04:58:41;;;;;;;14.70;13.20;;;8.00;99.90;;;;;;4978703;28;20045;-76
2022/04/15 05:01:07;;;;;;;12.32;11.13;;;7.90;99.90;;;;;;4969435;28;20062;-76
2022/04/15 05:03:33;;;;;;;13.80;10.98;;;7.90;99.90;;;;;;4960360;28;20098;-76
2022/04/15 05:05:58;;;;;;;11.98;10.77;;;7.90;99.90;;;;;;4991550;28;20452;-76
2022/04/15 05:08:24;;;;;;;11.63;10.43;;;7.90;99.90;;;;;;4992730;28;20133;-76
2022/04/15 05:10:50;;;;;;;11.10;10.00;;;7.90;99.90;;;;;;4969299;28;20061;-76
2022/04/15 05:13:16;;;;;;;10.55;9.55;;;7.90;99.90;;;;;;4992563;28;20080;-77
2022/04/15 05:15:41;;;;;;;10.50;9.50;;;7.90;99.90;;;;;;4991840;28;20064;-76
2022/04/15 05:18:07;;;;;;;10.40;9.30;;;7.90;99.90;;;;;;4976955;28;20040;-76
2022/04/15 05:20:33;;;;;;;10.52;9.43;;;7.90;99.90;;;;;;4995720;28;20053;-77
2022/04/15 05:22:59;;;;;;;10.35;9.00;;;7.90;99.90;;;;;;4995863;28;20037;-76
2022/04/15 05:25:25;;;;;;;9.68;8.77;;;7.90;99.90;;;;;;5012031;28;20052;-77
2022/04/15 05:27:52;;;;;;;11.07;9.20;;;7.90;99.90;;;;;;5011725;28;20045;-77
2022/04/15 05:30:18;;;;;;;9.68;8.68;;;7.90;99.90;;;;;;4979310;28;20092;-76
2022/04/15 05:32:44;;;;;;;9.88;8.85;;;7.90;99.90;;;;;;4995494;28;20084;-76
2022/04/15 05:35:10;;;;;;;9.32;8.43;;;7.90;99.90;;;;;;5011868;28;20041;-77
2022/04/15 05:37:36;;;;;;;9.32;8.15;;;7.90;99.90;;;;;;4989263;28;20053;-76
2022/04/15 05:40:02;;;;;;;10.10;8.57;;;7.90;99.90;;;;;;4992565;28;20653;-76
2022/04/15 05:42:28;;;;;;;8.90;8.10;;;7.90;99.90;;;;;;5012353;28;20044;-77
2022/04/15 05:44:54;;;;;;;9.38;8.43;;;7.90;99.90;;;;;;4995282;28;20041;-77
2022/04/15 05:47:20;;;;;;;10.32;9.32;;;7.90;99.90;;;;;;5030579;28;20059;-76
2022/04/15 05:49:46;;;;;;;9.88;8.88;;;7.90;99.90;;;;;;4991105;28;20048;-77
2022/04/15 05:52:11;;;;;;;9.43;8.52;;;7.90;99.90;;;;;;4991458;28;20045;-76
2022/04/15 05:54:37;;;;;;;9.50;7.97;;;7.90;99.90;;;;;;4962928;28;20195;-76
2022/04/15 05:57:03;;;;;;;8.85;7.95;;;7.90;99.90;;;;;;4978788;28;20041;-77
2022/04/15 05:59:29;;;;;;;9.95;8.65;;;7.80;99.90;;;;;;5007171;28;20038;-76
2022/04/15 06:01:55;;;;;;;8.00;7.22;;;7.80;99.90;;;;;;4994193;28;20871;-77
2022/04/15 06:04:21;;;;;;;8.07;7.38;;;7.90;99.90;;;;;;4995762;28;20080;-76
2022/04/15 06:06:47;;;;;;;8.35;7.40;;;7.70;99.90;;;;;;4986223;28;20081;-77
2022/04/15 06:09:13;;;;;;;8.32;7.53;;;7.70;99.90;;;;;;4974477;28;20712;-76
2022/04/15 06:11:41;;;;;;;8.27;6.90;;;7.70;99.90;;;;;;4963709;28;20401;-77
2022/04/15 06:14:07;;;;;;;8.15;7.35;;;7.70;99.90;;;;;;5008119;28;20050;-78
2022/04/15 06:16:37;;;;;;;8.93;7.88;;;7.70;99.90;;;;;;4975790;28;20829;-77
2022/04/15 06:19:04;;;;;;;8.07;6.47;;;7.60;99.90;;;;;;4978812;28;20119;-77
2022/04/15 06:21:31;;;;;;;7.85;7.00;;;7.70;99.90;;;;;;5011065;28;20054;-77
2022/04/15 06:23:57;;;;;;;7.85;7.05;;;7.60;99.90;;;;;;4994320;28;20045;-77
2022/04/15 06:26:23;;;;;;;8.50;7.70;;;7.60;99.90;;;;;;4995242;28;20049;-78
2022/04/15 06:28:49;;;;;;;7.47;6.72;;;7.60;99.90;;;;;;5010671;28;20045;-78
2022/04/15 06:31:14;;;;;;;8.13;6.90;;;7.70;99.90;;;;;;4994404;28;20403;-77
2022/04/15 06:33:41;;;;;;;6.90;6.20;;;7.70;99.90;;;;;;5011074;28;20050;-79
2022/04/15 06:36:07;;;;;;;8.57;6.55;;;7.70;99.90;;;;;;4991822;28;20041;-79
2022/04/15 06:38:33;;;;;;;7.40;6.63;;;7.60;99.90;;;;;;5011395;28;20575;-78
2022/04/15 06:40:59;;;;;;;8.35;7.55;;;7.60;99.90;;;;;;5011370;28;20056;-78
2022/04/15 06:43:24;;;;;;;11.85;8.13;;;7.60;99.90;;;;;;5010297;28;20042;-77
2022/04/15 06:45:50;;;;;;;7.95;7.15;;;7.60;99.90;;;;;;4993987;28;20045;-77
2022/04/15 06:48:16;;;;;;;10.82;8.82;;;7.60;99.90;;;;;;4993826;28;20400;-78
2022/04/15 06:50:42;;;;;;;10.20;9.18;;;7.60;99.90;;;;;;4992790;28;20053;-77
2022/04/15 06:53:08;;;;;;;9.90;8.60;;;7.60;99.90;;;;;;4994235;28;20585;-79
2022/04/15 06:55:33;;;;;;;10.45;9.55;;;7.70;99.90;;;;;;5000000;28;20096;-77
2022/04/15 06:57:59;;;;;;;10.02;9.02;;;7.70;99.90;;;;;;4999521;28;20037;-77
2022/04/15 07:00:25;;;;;;;12.57;9.43;;;7.60;99.90;;;;;;5015361;28;20045;-78
2022/04/15 07:02:53;;;;;;;10.63;9.52;;;7.60;99.90;;;;;;5013657;28;20052;-77
2022/04/15 07:05:19;;;;;;;11.27;10.13;;;7.60;99.90;;;;;;5004044;28;20037;-78
2022/04/15 07:07:45;;;;;;;12.30;11.00;;;7.60;99.90;;;;;;5013055;28;20063;-77
2022/04/15 07:10:11;;;;;;;11.02;9.80;;;7.70;99.90;;;;;;5019502;28;20048;-77
2022/04/15 07:12:38;;;;;;;12.73;10.98;;;7.60;99.90;;;;;;4997097;28;20130;-77
2022/04/15 07:15:05;;;;;;;11.50;10.20;;;7.70;99.90;;;;;;5003404;28;20042;-77
2022/04/15 07:17:31;;;;;;;13.07;11.10;;;7.70;99.90;;;;;;5017328;28;20056;-77
2022/04/15 07:19:57;;;;;;;12.50;11.30;;;7.70;99.90;;;;;;4989082;28;20044;-76
2022/04/15 07:22:23;;;;;;;15.35;10.40;;;7.70;99.90;;;;;;5001665;28;20526;-76
2022/04/15 07:24:50;;;;;;;11.52;10.32;;;7.80;99.90;;;;;;5016351;28;20574;-77
2022/04/15 07:27:16;;;;;;;11.45;10.27;;;7.80;99.90;;;;;;5007082;28;20594;-78
2022/04/15 07:29:44;;;;;;;13.40;11.38;;;7.80;99.90;;;;;;4999984;28;20052;-77
2022/04/15 07:32:10;;;;;;;12.45;11.10;;;7.90;99.90;;;;;;5021527;28;20747;-78
2022/04/15 07:34:36;;;;;;;14.82;12.75;;;7.80;99.90;;;;;;5003910;28;20064;-77
2022/04/15 07:37:03;;;;;;;14.70;12.57;;;7.90;99.90;;;;;;4998210;28;20148;-77
2022/04/15 07:39:30;;;;;;;15.50;13.10;;;7.90;99.90;;;;;;4999853;28;20834;-77
2022/04/15 07:41:56;;;;;;;17.33;14.00;;;8.00;99.90;;;;;;4991760;28;20152;-77
2022/04/15 07:44:21;;;;;;;15.27;13.43;;;8.00;99.90;;;;;;4995601;28;20135;-77
2022/04/15 07:46:48;;;;;;;16.30;13.48;;;8.00;99.90;;;;;;4995189;28;20336;-78
2022/04/15 07:49:15;;;;;;;14.25;12.73;;;8.10;99.90;;;;;;5013969;28;20499;-77
2022/04/15 07:51:41;;;;;;;16.50;13.82;;;8.10;99.90;;;;;;5008700;28;20124;-77
2022/04/15 07:54:07;;;;;;;16.45;12.88;;;8.10;99.90;;;;;;4988356;28;20041;-80
2022/04/15 07:56:34;;;;;;;15.73;13.40;;;8.10;99.90;;;;;;4977223;28;20045;-80
2022/04/15 07:59:00;;;;;;;17.33;13.80;;;8.20;99.90;;;;;;4986569;28;20045;-80
2022/04/15 08:01:29;;;;;;;18.38;15.02;;;8.20;99.90;;;;;;4970988;28;20053;-81
2022/04/15 08:03:56;;;;;;;16.58;14.60;;;8.30;99.90;;;;;;4983685;28;20046;-80
2022/04/15 08:06:23;;;;;;;16.85;15.10;;;8.30;99.90;;;;;;4964094;28;20053;-81
2022/04/15 08:08:50;;;;;;;18.85;16.45;;;8.30;99.90;;;;;;4998373;28;20049;-81
2022/04/15 08:11:16;;;;;;;17.77;14.60;;;8.40;99.90;;;;;;4989211;28;20052;-80
2022/04/15 08:13:42;;;;;;;17.20;14.43;;;8.40;99.90;;;;;;4998968;28;20049;-80
2022/04/15 08:16:09;;;;;;;18.33;15.05;;;8.40;99.90;;;;;;4978476;28;20189;-80
2022/04/15 08:18:35;;;;;;;16.08;14.00;;;8.50;99.90;;;;;;5009834;28;20133;-79
2022/04/15 08:21:01;;;;;;;17.65;15.85;;;8.50;99.90;;;;;;4994270;28;20037;-80
2022/04/15 08:23:27;;;;;;;22.33;15.43;;;8.50;99.90;;;;;;5000000;28;20059;-80
2022/04/15 08:25:53;;;;;;;15.50;13.73;;;8.60;99.90;;;;;;5009346;28;20111;-80
2022/04/15 08:28:19;;;;;;;15.35;13.70;;;8.60;99.90;;;;;;4993499;28;20079;-80
2022/04/15 08:30:46;;;;;;;16.90;14.43;;;8.60;99.90;;;;;;4990189;28;20050;-81
2022/04/15 08:33:11;;;;;;;16.27;13.38;;;8.70;99.90;;;;;;4994298;28;20132;-82
2022/04/15 08:35:39;;;;;;;15.40;13.77;;;8.70;99.90;;;;;;4979995;28;20128;-81
2022/04/15 08:38:08;;;;;;;17.92;12.88;;;8.80;99.90;;;;;;5009739;28;20056;-81
2022/04/15 08:40:36;;;;;;;15.80;12.80;;;8.80;99.90;;;;;;4956812;28;20272;-81
2022/04/15 08:43:07;;;;;;;17.02;12.90;;;8.80;99.90;;;;;;5009447;28;20045;-79
2022/04/15 08:45:40;;;;;;;14.52;12.82;;;8.80;99.90;;;;;;4996764;28;20119;-79
2022/04/15 08:48:06;;;;;;;16.02;12.27;;;8.90;99.90;;;;;;5007889;28;20531;-81
2022/04/15 08:50:32;;;;;;;13.88;12.23;;;8.90;99.90;;;;;;4979200;28;20111;-80
2022/04/15 08:53:00;;;;;;;14.05;12.05;;;8.90;99.90;;;;;;4989609;28;20045;-77
2022/04/15 08:55:27;;;;;;;18.48;11.88;;;9.00;99.90;;;;;;5020776;28;20059;-77
2022/04/15 08:57:54;;;;;;;13.57;12.02;;;9.00;99.90;;;;;;5002453;28;20665;-78
2022/04/15 09:00:21;;;;;;;18.45;11.98;;;9.00;99.90;;;;;;4991700;28;20041;-77
2022/04/15 09:02:49;;;;;;;13.98;11.63;;;9.10;99.90;;;;;;4988957;28;20400;-77
2022/04/15 09:05:22;;;;;;;15.27;10.90;;;9.10;99.90;;;;;;5005556;28;20518;-77
2022/04/15 09:07:48;;;;;;;15.40;11.65;;;9.10;99.90;;;;;;4985559;28;20058;-78
2022/04/15 09:10:16;;;;;;;13.73;10.68;;;9.20;99.90;;;;;;4989412;28;20041;-77
2022/04/15 09:12:42;;;;;;;18.10;12.10;;;9.20;99.90;;;;;;4991340;28;20049;-78
2022/04/15 09:15:10;;;;;;;16.50;10.52;;;9.20;99.90;;;;;;4997255;28;20091;-77
2022/04/15 09:17:49;;;;;;;16.02;12.48;;;9.30;99.90;;;;;;4972085;28;20047;-77
2022/04/15 09:20:16;;;;;;;15.73;11.80;;;9.30;99.90;;;;;;5005848;28;20333;-77
2022/04/15 09:22:43;;;;;;;12.75;10.20;;;9.40;99.90;;;;;;4994810;28;20638;-78
2022/04/15 09:25:10;;;;;;;11.63;9.82;;;9.50;99.90;;;;;;4976613;28;20199;-77
2022/04/15 09:27:36;;;;;;;12.70;9.82;;;9.60;99.90;;;;;;5004254;28;20041;-79
2022/04/15 09:30:03;;;;;;;11.82;9.38;;;9.80;99.90;;;;;;4969132;28;20068;-77
2022/04/15 09:32:29;;;;;;;11.57;8.50;;;9.90;99.90;;;;;;4982252;28;20131;-78
2022/04/15 09:35:03;;;;;;;9.25;8.13;;;9.90;99.90;;;;;;4980783;28;20350;-78
2022/04/15 09:37:42;;;;;;;11.07;7.47;;;10.00;99.90;;;;;;4984432;28;20389;-78
2022/04/15 09:40:15;;;;;;;10.18;7.45;;;10.00;99.90;;;;;;4996107;28;20046;-76
2022/04/15 09:42:44;;;;;;;8.93;7.78;;;9.90;99.90;;;;;;4981193;28;20145;-78
2022/04/15 09:45:17;;;;;;;10.67;7.80;;;9.90;99.90;;;;;;4993811;28;20041;-77
2022/04/15 09:47:53;;;;;;;10.45;8.65;;;9.90;99.90;;;;;;4971388;28;20803;-78
2022/04/15 09:50:29;;;;;;;10.05;8.25;;;10.10;99.90;;;;;;4970582;28;20045;-78
2022/04/15 09:53:10;;;;;;;10.68;8.40;;;10.30;99.90;;;;;;4996331;28;20049;-78
2022/04/15 09:55:36;;;;;;;;;;;10.50;99.90;;;;;;4988238;28;20293;-78
2022/04/15 09:58:11;;;;;;;11.23;8.52;;;10.80;99.90;;;;;;4983424;28;20391;-77
2022/04/15 10:00:39;;;;;;;10.23;8.18;;;10.90;99.90;;;;;;4973597;28;20263;-77
2022/04/15 10:03:11;;;;;;;10.95;8.50;;;11.10;99.90;;;;;;4985771;28;20093;-77
2022/04/15 10:05:41;;;;;;;11.60;8.05;;;11.20;99.90;;;;;;4972301;28;20056;-78
2022/04/15 10:08:09;;;;;;;9.98;8.75;;;11.20;99.90;;;;;;4992924;28;20276;-77
2022/04/15 10:10:35;;;;;;;10.73;7.85;;;11.20;99.90;;;;;;5012510;28;20499;-78
2022/04/15 10:13:06;;;;;;;8.77;7.55;;;11.30;99.90;;;;;;4996416;28;20392;-78
2022/04/15 10:15:33;;;;;;;11.20;8.32;;;11.30;99.90;;;;;;4995779;28;20726;-78
2022/04/15 10:18:03;;;;;;;9.88;8.65;;;11.20;99.90;;;;;;4983531;28;20541;-77
2022/04/15 10:20:30;;;;;;;9.90;8.90;;;11.20;99.90;;;;;;5003567;28;20056;-78
2022/04/15 10:23:01;;;;;;;10.55;7.40;;;11.10;99.90;;;;;;4991098;28;20456;-78
2022/04/15 10:25:28;;;;;;;9.00;7.53;;;11.20;99.90;;;;;;4983314;28;20048;-78
2022/04/15 10:28:20;;;;;;;9.25;7.10;;;11.20;99.90;;;;;;4989733;28;20048;-77
2022/04/15 10:31:03;;;;;;;9.68;6.95;;;11.30;99.90;;;;;;5020943;28;20052;-78
2022/04/15 10:33:31;;;;;;;10.82;7.40;;;11.20;99.90;;;;;;4996599;28;20088;-78
2022/04/15 10:36:09;;;;;;;9.02;6.70;;;11.20;99.90;;;;;;5012859;28;20049;-78
2022/04/15 10:38:35;;;;;;;7.75;6.20;;;11.20;99.90;;;;;;4987380;28;20080;-77
2022/04/15 10:41:15;;;;;;;8.38;7.00;;;11.10;99.90;;;;;;4990540;28;20131;-78
2022/04/15 10:43:58;;;;;;;12.33;7.27;;;11.10;99.90;;;;;;5002879;28;20125;-79
2022/04/15 10:46:31;;;;;;;8.40;6.80;;;11.20;99.90;;;;;;4986841;28;20083;-78
2022/04/15 10:49:02;;;;;;;8.50;6.82;;;11.20;99.90;;;;;;5001888;28;20049;-77
2022/04/15 10:51:33;;;;;;;9.82;7.35;;;11.30;99.90;;;;;;4987116;28;20392;-78
2022/04/15 10:54:36;;;;;;;7.70;6.70;;;11.30;99.90;;;;;;4989861;28;20041;-77
2022/04/15 10:57:10;;;;;;;9.95;6.35;;;11.30;99.90;;;;;;4989470;28;20049;-77
2022/04/15 11:02:40;;;;;;;10.07;7.68;;;11.30;99.90;;;;;;5003825;28;20053;-78
2022/04/15 11:05:14;;;;;;;8.65;7.75;;;11.20;99.90;;;;;;4990645;28;20500;-77
2022/04/15 11:08:07;;;;;;;11.43;9.10;;;11.30;99.90;;;;;;4970538;28;20089;-76
2022/04/15 11:10:51;;;;;;;9.90;8.63;;;11.30;99.90;;;;;;4988346;28;20515;-78
2022/04/15 11:13:24;;;;;;;10.07;8.13;;;11.30;99.90;;;;;;4990667;28;20046;-77
2022/04/15 11:16:13;;;;;;;9.63;8.15;;;11.20;99.90;;;;;;4987575;28;20292;-78
2022/04/15 11:18:59;;;;;;;9.50;8.50;;;11.20;99.90;;;;;;4987166;28;20433;-77
2022/04/15 11:21:29;;;;;;;10.48;8.85;;;11.20;99.90;;;;;;4984522;28;20049;-78
2022/04/15 11:24:00;;;;;;;10.32;8.05;;;11.20;99.90;;;;;;4973548;28;20135;-78
2022/04/15 11:26:27;;;;;;;11.10;8.25;;;11.20;99.90;;;;;;4984701;28;20052;-78
2022/04/15 11:28:57;;;;;;;9.13;8.23;;;11.20;99.90;;;;;;4967618;28;20131;-77
2022/04/15 11:31:26;;;;;;;9.75;8.32;;;11.30;99.90;;;;;;5001291;28;20294;-78
2022/04/15 11:33:54;;;;;;;11.75;8.25;;;11.20;99.90;;;;;;4978119;28;20365;-77
2022/04/15 11:36:22;;;;;;;9.48;7.47;;;11.20;99.90;;;;;;4959960;28;20496;-77
2022/04/15 11:38:50;;;;;;;9.43;7.65;;;11.20;99.90;;;;;;4975739;28;20623;-78
2022/04/15 11:41:20;;;;;;;9.45;7.53;;;11.30;99.90;;;;;;4987544;28;20483;-78
2022/04/15 11:43:59;;;;;;;9.65;7.45;;;11.20;99.90;;;;;;4987538;28;20049;-78
2022/04/15 11:46:44;;;;;;;11.10;7.75;;;11.30;99.90;;;;;;4981722;28;20374;-77
2022/04/15 11:49:17;;;;;;;8.45;7.22;;;11.20;99.90;;;;;;4982804;28;20046;-79
2022/04/15 11:51:44;;;;;;;9.57;7.35;;;11.20;99.90;;;;;;5001747;28;20041;-78
2022/04/15 11:54:10;;;;;;;10.40;7.63;;;11.20;99.90;;;;;;4987804;28;20413;-78
2022/04/15 11:56:36;;;;;;;10.82;7.38;;;11.20;99.90;;;;;;4967667;28;20045;-79
2022/04/15 11:59:04;;;;;;;10.63;7.32;;;11.20;99.90;;;;;;4991580;28;20281;-78
2022/04/15 12:01:31;;;;;;;9.90;7.60;;;11.10;99.90;;;;;;5001908;28;20334;-77
2022/04/15 12:03:58;;;;;;;9.05;7.03;;;11.10;99.90;;;;;;4994032;28;20053;-79
2022/04/15 12:06:25;;;;;;;9.07;6.82;;;11.10;99.90;;;;;;4982532;28;20057;-79
2022/04/15 12:08:52;;;;;;;8.43;7.32;;;11.10;99.90;;;;;;4997664;28;20615;-79
2022/04/15 12:11:25;;;;;;;8.40;6.70;;;11.20;99.90;;;;;;4989799;28;20124;-78
2022/04/15 12:14:03;;;;;;;8.65;7.25;;;11.30;99.90;;;;;;5021306;28;20052;-78
2022/04/15 12:16:31;;;;;;;8.07;7.25;;;11.30;99.90;;;;;;4999891;28;20060;-79
2022/04/15 12:18:58;;;;;;;8.70;6.68;;;11.30;99.90;;;;;;5011528;28;20132;-78
2022/04/15 12:21:26;;;;;;;8.20;6.72;;;11.30;99.90;;;;;;4982664;28;20053;-79
2022/04/15 12:24:19;;;;;;;7.78;6.70;;;11.30;99.90;;;;;;4997831;28;20049;-79
2022/04/15 12:26:51;;;;;;;10.52;7.68;;;11.30;99.90;;;;;;4972286;28;20045;-79
2022/04/15 12:32:25;;;;;;;8.00;7.07;;;11.30;99.90;;;;;;5013798;28;20044;-80
2022/04/15 12:34:54;;;;;;;10.32;6.57;;;11.30;99.90;;;;;;5005510;28;20057;-78
2022/04/15 12:37:38;;;;;;;9.32;7.82;;;11.30;99.90;;;;;;4996041;28;20084;-78
2022/04/15 12:40:17;;;;;;;9.73;7.93;;;11.30;99.90;;;;;;4988106;28;20089;-78
2022/04/15 12:42:44;;;;;;;9.73;7.35;;;11.20;99.90;;;;;;4995547;28;20131;-79
2022/04/15 12:45:12;;;;;;;8.48;6.93;;;11.10;99.90;;;;;;4996650;28;20045;-81
2022/04/15 12:47:39;;;;;;;8.23;7.30;;;11.00;99.90;;;;;;5009037;28;20080;-78
2022/04/15 12:50:20;;;;;;;9.32;7.47;;;11.00;99.90;;;;;;5001814;28;20049;-78
2022/04/15 12:52:48;;;;;;;8.68;7.78;;;11.00;99.90;;;;;;4998675;28;20382;-77